sensor_id;sensor_type;location;lat;lon;timestamp;pressure;altitude;pressure_sealevel;temperature;humidity
47104;BME280;32853;52.164;5.400;2022-10-16T00:01:42;100857.22;;;13.81;100.00
47104;BME280;32853;52.164;5.400;2022-10-16T00:04:12;100854.69;;;13.80;100.00
47104;BME280;32853;52.164;5.400;2022-10-16T00:06:37;100817.16;;;13.60;100.00
47104;BME280;32853;52.164;5.400;2022-10-16T00:09:03;100729.00;;;13.04;100.00
47104;BME280;32853;52.164;5.400;2022-10-16T00:11:34;100753.84;;;13.15;100.00
47104;BME280;32853;52.164;5.400;2022-10-16T00:14:14;100775.34;;;13.23;100.00
47104;BME280;32853;52.164;5.400;2022-10-16T00:16:43;100794.03;;;13.34;100.00
47104;BME280;32853;52.164;5.400;2022-10-16T00:19:17;100871.28;;;13.64;100.00
47104;BME280;32853;52.164;5.400;2022-10-16T00:21:43;100858.81;;;13.68;100.00
47104;BME280;32853;52.164;5.400;2022-10-16T00:24:10;100816.66;;;13.36;100.00
47104;BME280;32853;52.164;5.400;2022-10-16T00:26:39;100692.22;;;12.71;100.00
47104;BME280;32853;52.164;5.400;2022-10-16T00:29:17;100856.50;;;13.62;100.00
47104;BME280;32853;52.164;5.400;2022-10-16T00:31:45;100878.72;;;13.72;100.00
47104;BME280;32853;52.164;5.400;2022-10-16T00:34:11;100852.25;;;13.59;100.00
47104;BME280;32853;52.164;5.400;2022-10-16T00:36:36;100830.19;;;13.46;100.00
47104;BME280;32853;52.164;5.400;2022-10-16T00:39:05;100863.81;;;13.73;100.00
47104;BME280;32853;52.164;5.400;2022-10-16T00:42:01;100857.72;;;13.72;100.00
47104;BME280;32853;52.164;5.400;2022-10-16T00:44:57;100855.41;;;13.66;100.00
47104;BME280;32853;52.164;5.400;2022-10-16T00:47:27;100854.56;;;13.65;100.00
47104;BME280;32853;52.164;5.400;2022-10-16T00:52:44;100851.78;;;13.69;100.00
47104;BME280;32853;52.164;5.400;2022-10-16T00:55:24;100754.09;;;13.10;100.00
47104;BME280;32853;52.164;5.400;2022-10-16T00:58:07;100858.84;;;13.84;100.00
47104;BME280;32853;52.164;5.400;2022-10-16T01:00:36;100862.00;;;13.90;100.00
47104;BME280;32853;52.164;5.400;2022-10-16T01:03:21;100862.75;;;13.77;100.00
47104;BME280;32853;52.164;5.400;2022-10-16T01:05:55;100815.00;;;13.51;100.00
47104;BME280;32853;52.164;5.400;2022-10-16T01:11:27;100860.69;;;13.82;100.00
47104;BME280;32853;52.164;5.400;2022-10-16T01:14:11;100872.91;;;13.83;100.00
47104;BME280;32853;52.164;5.400;2022-10-16T01:16:44;100787.47;;;13.25;100.00
47104;BME280;32853;52.164;5.400;2022-10-16T01:19:25;100856.72;;;13.75;100.00
47104;BME280;32853;52.164;5.400;2022-10-16T01:21:53;100866.59;;;14.03;100.00
47104;BME280;32853;52.164;5.400;2022-10-16T01:24:31;100859.47;;;14.05;100.00
47104;BME280;32853;52.164;5.400;2022-10-16T01:27:21;100849.03;;;14.03;100.00
47104;BME280;32853;52.164;5.400;2022-10-16T01:32:38;100869.50;;;13.98;100.00
47104;BME280;32853;52.164;5.400;2022-10-16T01:35:18;100838.66;;;13.84;100.00
47104;BME280;32853;52.164;5.400;2022-10-16T01:38:25;100866.34;;;14.07;100.00
47104;BME280;32853;52.164;5.400;2022-10-16T01:41:02;100850.47;;;13.93;100.00
47104;BME280;32853;52.164;5.400;2022-10-16T01:46:47;100874.41;;;14.04;100.00
47104;BME280;32853;52.164;5.400;2022-10-16T01:49:16;100868.31;;;14.04;100.00
47104;BME280;32853;52.164;5.400;2022-10-16T01:51:52;100854.88;;;13.92;100.00
47104;BME280;32853;52.164;5.400;2022-10-16T01:54:20;100791.97;;;13.56;100.00
47104;BME280;32853;52.164;5.400;2022-10-16T01:56:47;100858.81;;;14.01;100.00
47104;BME280;32853;52.164;5.400;2022-10-16T01:59:21;100835.63;;;13.92;100.00
47104;BME280;32853;52.164;5.400;2022-10-16T02:02:19;100840.84;;;14.09;100.00
47104;BME280;32853;52.164;5.400;2022-10-16T02:04:53;100758.31;;;13.63;100.00
47104;BME280;32853;52.164;5.400;2022-10-16T02:07:29;100856.63;;;14.09;100.00
47104;BME280;32853;52.164;5.400;2022-10-16T02:09:55;100834.72;;;14.09;100.00
47104;BME280;32853;52.164;5.400;2022-10-16T02:12:26;100841.50;;;14.13;100.00
47104;BME280;32853;52.164;5.400;2022-10-16T02:14:53;100858.22;;;14.12;100.00
47104;BME280;32853;52.164;5.400;2022-10-16T02:17:19;100716.25;;;13.31;100.00
47104;BME280;32853;52.164;5.400;2022-10-16T02:19:47;100730.75;;;13.38;100.00
47104;BME280;32853;52.164;5.400;2022-10-16T02:22:22;100821.63;;;13.76;100.00
47104;BME280;32853;52.164;5.400;2022-10-16T02:24:57;100811.44;;;13.85;100.00
47104;BME280;32853;52.164;5.400;2022-10-16T02:27:41;100869.78;;;14.09;100.00
47104;BME280;32853;52.164;5.400;2022-10-16T02:30:42;100870.53;;;14.11;100.00
47104;BME280;32853;52.164;5.400;2022-10-16T02:33:12;100752.28;;;13.45;100.00
47104;BME280;32853;52.164;5.400;2022-10-16T02:35:40;100857.56;;;14.08;100.00
47104;BME280;32853;52.164;5.400;2022-10-16T02:38:07;100643.97;;;12.74;100.00
47104;BME280;32853;52.164;5.400;2022-10-16T02:40:33;100770.09;;;13.23;100.00
47104;BME280;32853;52.164;5.400;2022-10-16T02:42:59;100872.78;;;14.02;100.00
47104;BME280;32853;52.164;5.400;2022-10-16T02:45:25;100865.88;;;13.83;100.00
47104;BME280;32853;52.164;5.400;2022-10-16T02:47:51;100835.25;;;13.66;100.00
47104;BME280;32853;52.164;5.400;2022-10-16T02:50:17;100831.75;;;13.66;100.00
47104;BME280;32853;52.164;5.400;2022-10-16T02:52:42;100853.84;;;13.79;100.00
47104;BME280;32853;52.164;5.400;2022-10-16T02:55:07;100824.94;;;13.62;100.00
47104;BME280;32853;52.164;5.400;2022-10-16T02:57:40;100806.13;;;13.54;100.00
47104;BME280;32853;52.164;5.400;2022-10-16T03:00:08;100892.13;;;14.01;100.00
47104;BME280;32853;52.164;5.400;2022-10-16T03:02:34;100774.97;;;13.30;100.00
47104;BME280;32853;52.164;5.400;2022-10-16T03:04:59;100884.81;;;13.90;100.00
47104;BME280;32853;52.164;5.400;2022-10-16T03:07:24;100882.09;;;13.91;100.00
47104;BME280;32853;52.164;5.400;2022-10-16T03:09:49;100843.56;;;13.75;100.00
47104;BME280;32853;52.164;5.400;2022-10-16T03:12:15;100717.44;;;12.91;100.00
47104;BME280;32853;52.164;5.400;2022-10-16T03:14:41;100875.44;;;14.02;100.00
47104;BME280;32853;52.164;5.400;2022-10-16T03:17:07;100743.66;;;13.26;100.00
47104;BME280;32853;52.164;5.400;2022-10-16T03:19:32;100715.66;;;13.09;100.00
47104;BME280;32853;52.164;5.400;2022-10-16T03:21:57;100832.13;;;13.76;100.00
47104;BME280;32853;52.164;5.400;2022-10-16T03:24:23;100825.75;;;13.64;100.00
47104;BME280;32853;52.164;5.400;2022-10-16T03:26:48;100850.53;;;13.76;100.00
47104;BME280;32853;52.164;5.400;2022-10-16T03:29:13;100872.59;;;13.89;100.00
47104;BME280;32853;52.164;5.400;2022-10-16T03:31:38;100819.56;;;13.48;100.00
47104;BME280;32853;52.164;5.400;2022-10-16T03:34:04;100858.25;;;13.61;100.00
47104;BME280;32853;52.164;5.400;2022-10-16T03:36:29;100878.94;;;13.85;100.00
47104;BME280;32853;52.164;5.400;2022-10-16T03:38:54;100894.88;;;13.82;100.00
47104;BME280;32853;52.164;5.400;2022-10-16T03:41:20;100708.19;;;12.84;100.00
47104;BME280;32853;52.164;5.400;2022-10-16T03:43:45;100857.34;;;13.62;100.00
47104;BME280;32853;52.164;5.400;2022-10-16T03:46:11;100679.13;;;12.54;100.00
47104;BME280;32853;52.164;5.400;2022-10-16T03:48:36;100907.44;;;13.77;100.00
47104;BME280;32853;52.164;5.400;2022-10-16T03:51:02;100896.50;;;13.84;100.00
47104;BME280;32853;52.164;5.400;2022-10-16T03:53:27;100815.97;;;13.33;100.00
47104;BME280;32853;52.164;5.400;2022-10-16T03:55:52;100864.06;;;13.51;100.00
47104;BME280;32853;52.164;5.400;2022-10-16T03:58:18;100891.66;;;13.77;100.00
47104;BME280;32853;52.164;5.400;2022-10-16T04:00:45;100912.69;;;13.77;100.00
47104;BME280;32853;52.164;5.400;2022-10-16T04:03:12;100841.16;;;13.37;100.00
47104;BME280;32853;52.164;5.400;2022-10-16T04:05:37;100817.53;;;13.20;100.00
47104;BME280;32853;52.164;5.400;2022-10-16T04:08:03;100792.63;;;12.92;100.00
47104;BME280;32853;52.164;5.400;2022-10-16T04:10:29;100916.38;;;13.73;100.00
47104;BME280;32853;52.164;5.400;2022-10-16T04:12:54;100895.16;;;13.43;100.00
47104;BME280;32853;52.164;5.400;2022-10-16T04:15:21;100872.50;;;13.40;100.00
47104;BME280;32853;52.164;5.400;2022-10-16T04:17:47;100923.41;;;13.72;100.00
47104;BME280;32853;52.164;5.400;2022-10-16T04:20:12;100928.59;;;13.74;100.00
47104;BME280;32853;52.164;5.400;2022-10-16T04:22:37;100906.84;;;13.54;100.00
47104;BME280;32853;52.164;5.400;2022-10-16T04:25:03;100731.09;;;12.46;100.00
47104;BME280;32853;52.164;5.400;2022-10-16T04:27:28;100936.81;;;13.68;100.00
47104;BME280;32853;52.164;5.400;2022-10-16T04:29:56;100880.31;;;13.24;100.00
47104;BME280;32853;52.164;5.400;2022-10-16T04:32:21;100928.84;;;13.52;100.00
47104;BME280;32853;52.164;5.400;2022-10-16T04:34:46;100955.75;;;13.57;100.00
47104;BME280;32853;52.164;5.400;2022-10-16T04:37:12;100972.34;;;13.57;100.00
47104;BME280;32853;52.164;5.400;2022-10-16T04:39:37;100894.72;;;13.16;100.00
47104;BME280;32853;52.164;5.400;2022-10-16T04:42:02;100832.06;;;12.73;100.00
47104;BME280;32853;52.164;5.400;2022-10-16T04:44:28;100968.03;;;13.56;100.00
47104;BME280;32853;52.164;5.400;2022-10-16T04:46:53;100958.38;;;13.57;100.00
47104;BME280;32853;52.164;5.400;2022-10-16T04:49:18;100928.16;;;13.31;100.00
47104;BME280;32853;52.164;5.400;2022-10-16T04:51:44;100946.78;;;13.44;100.00
47104;BME280;32853;52.164;5.400;2022-10-16T04:54:09;100977.38;;;13.62;100.00
47104;BME280;32853;52.164;5.400;2022-10-16T04:56:35;100974.59;;;13.48;100.00
47104;BME280;32853;52.164;5.400;2022-10-16T04:59:10;100982.63;;;13.62;100.00
47104;BME280;32853;52.164;5.400;2022-10-16T05:01:35;100911.41;;;13.15;100.00
47104;BME280;32853;52.164;5.400;2022-10-16T05:04:00;100988.28;;;13.54;100.00
47104;BME280;32853;52.164;5.400;2022-10-16T05:06:34;100949.47;;;13.25;100.00
47104;BME280;32853;52.164;5.400;2022-10-16T05:09:02;100881.28;;;12.87;100.00
47104;BME280;32853;52.164;5.400;2022-10-16T05:11:39;100992.75;;;13.52;100.00
47104;BME280;32853;52.164;5.400;2022-10-16T05:14:06;101004.81;;;13.56;100.00
47104;BME280;32853;52.164;5.400;2022-10-16T05:16:34;101005.28;;;13.47;100.00
47104;BME280;32853;52.164;5.400;2022-10-16T05:18:59;100946.00;;;13.05;100.00
47104;BME280;32853;52.164;5.400;2022-10-16T05:21:24;100972.25;;;13.24;100.00
47104;BME280;32853;52.164;5.400;2022-10-16T05:23:50;101003.56;;;13.46;100.00
47104;BME280;32853;52.164;5.400;2022-10-16T05:26:15;100992.56;;;13.38;100.00
47104;BME280;32853;52.164;5.400;2022-10-16T05:28:40;100975.13;;;13.18;100.00
47104;BME280;32853;52.164;5.400;2022-10-16T05:31:07;101019.78;;;13.37;100.00
47104;BME280;32853;52.164;5.400;2022-10-16T05:33:33;101023.63;;;13.30;100.00
47104;BME280;32853;52.164;5.400;2022-10-16T05:36:03;101007.41;;;13.22;100.00
47104;BME280;32853;52.164;5.400;2022-10-16T05:38:28;101024.09;;;13.21;100.00
47104;BME280;32853;52.164;5.400;2022-10-16T05:40:54;101048.69;;;13.37;100.00
47104;BME280;32853;52.164;5.400;2022-10-16T05:43:19;101035.69;;;13.34;100.00
47104;BME280;32853;52.164;5.400;2022-10-16T05:45:56;101051.63;;;13.31;100.00
47104;BME280;32853;52.164;5.400;2022-10-16T05:48:22;101048.84;;;13.34;100.00
47104;BME280;32853;52.164;5.400;2022-10-16T05:50:48;100988.59;;;12.93;100.00
47104;BME280;32853;52.164;5.400;2022-10-16T05:53:13;101011.56;;;13.07;100.00
47104;BME280;32853;52.164;5.400;2022-10-16T05:55:38;101030.66;;;13.11;100.00
47104;BME280;32853;52.164;5.400;2022-10-16T05:58:28;101078.25;;;13.41;100.00
47104;BME280;32853;52.164;5.400;2022-10-16T06:01:17;101081.63;;;13.44;100.00
47104;BME280;32853;52.164;5.400;2022-10-16T06:03:42;101081.81;;;13.40;100.00
47104;BME280;32853;52.164;5.400;2022-10-16T06:06:13;100996.69;;;12.89;100.00
47104;BME280;32853;52.164;5.400;2022-10-16T06:08:42;101082.66;;;13.40;100.00
47104;BME280;32853;52.164;5.400;2022-10-16T06:11:11;100923.84;;;12.37;100.00
47104;BME280;32853;52.164;5.400;2022-10-16T06:13:42;101086.88;;;13.44;100.00
47104;BME280;32853;52.164;5.400;2022-10-16T06:16:13;101086.09;;;13.42;100.00
47104;BME280;32853;52.164;5.400;2022-10-16T06:18:38;101101.88;;;13.42;100.00
47104;BME280;32853;52.164;5.400;2022-10-16T06:21:19;101103.09;;;13.52;100.00
47104;BME280;32853;52.164;5.400;2022-10-16T06:23:59;101104.19;;;13.48;100.00
47104;BME280;32853;52.164;5.400;2022-10-16T06:26:29;101125.13;;;13.50;100.00
47104;BME280;32853;52.164;5.400;2022-10-16T06:29:01;101089.94;;;13.35;100.00
47104;BME280;32853;52.164;5.400;2022-10-16T06:31:29;101124.34;;;13.48;100.00
47104;BME280;32853;52.164;5.400;2022-10-16T06:33:57;101053.00;;;13.00;100.00
47104;BME280;32853;52.164;5.400;2022-10-16T06:36:23;101077.63;;;13.17;100.00
47104;BME280;32853;52.164;5.400;2022-10-16T06:38:49;101094.53;;;13.30;100.00
47104;BME280;32853;52.164;5.400;2022-10-16T06:41:16;101114.53;;;13.51;100.00
47104;BME280;32853;52.164;5.400;2022-10-16T06:43:42;101132.16;;;13.49;100.00
47104;BME280;32853;52.164;5.400;2022-10-16T06:46:11;101109.75;;;13.42;100.00
47104;BME280;32853;52.164;5.400;2022-10-16T06:48:36;101127.81;;;13.48;100.00
47104;BME280;32853;52.164;5.400;2022-10-16T06:51:06;101144.25;;;13.53;100.00
47104;BME280;32853;52.164;5.400;2022-10-16T06:53:34;101123.06;;;13.56;100.00
47104;BME280;32853;52.164;5.400;2022-10-16T06:56:13;101069.13;;;13.12;100.00
47104;BME280;32853;52.164;5.400;2022-10-16T06:58:39;101141.66;;;13.52;100.00
47104;BME280;32853;52.164;5.400;2022-10-16T07:01:05;101116.13;;;13.36;100.00
47104;BME280;32853;52.164;5.400;2022-10-16T07:03:31;101130.25;;;13.53;100.00
47104;BME280;32853;52.164;5.400;2022-10-16T07:05:57;101142.66;;;13.49;100.00
47104;BME280;32853;52.164;5.400;2022-10-16T07:08:22;101133.28;;;13.62;100.00
47104;BME280;32853;52.164;5.400;2022-10-16T07:10:58;101056.91;;;13.11;100.00
47104;BME280;32853;52.164;5.400;2022-10-16T07:13:23;101175.19;;;13.65;100.00
47104;BME280;32853;52.164;5.400;2022-10-16T07:15:48;101113.50;;;13.36;100.00
47104;BME280;32853;52.164;5.400;2022-10-16T07:18:14;101165.66;;;13.63;100.00
47104;BME280;32853;52.164;5.400;2022-10-16T07:20:42;101150.78;;;13.63;100.00
47104;BME280;32853;52.164;5.400;2022-10-16T07:23:07;101105.34;;;13.24;100.00
47104;BME280;32853;52.164;5.400;2022-10-16T07:25:33;101053.28;;;12.94;100.00
47104;BME280;32853;52.164;5.400;2022-10-16T07:27:58;101179.72;;;13.81;100.00
47104;BME280;32853;52.164;5.400;2022-10-16T07:30:23;101160.81;;;13.73;100.00
47104;BME280;32853;52.164;5.400;2022-10-16T07:32:49;101052.09;;;13.01;100.00
47104;BME280;32853;52.164;5.400;2022-10-16T07:35:14;101061.03;;;12.97;100.00
47104;BME280;32853;52.164;5.400;2022-10-16T07:37:47;101170.03;;;13.45;100.00
47104;BME280;32853;52.164;5.400;2022-10-16T07:40:21;101216.81;;;13.75;100.00
47104;BME280;32853;52.164;5.400;2022-10-16T07:42:47;101146.78;;;13.36;100.00
47104;BME280;32853;52.164;5.400;2022-10-16T07:45:12;101078.41;;;13.00;100.00
47104;BME280;32853;52.164;5.400;2022-10-16T07:47:40;101219.00;;;13.84;100.00
47104;BME280;32853;52.164;5.400;2022-10-16T07:50:06;101231.94;;;13.88;100.00
47104;BME280;32853;52.164;5.400;2022-10-16T07:52:31;101197.44;;;13.58;100.00
47104;BME280;32853;52.164;5.400;2022-10-16T07:54:56;101248.72;;;13.86;100.00
47104;BME280;32853;52.164;5.400;2022-10-16T07:57:22;101222.63;;;13.62;100.00
47104;BME280;32853;52.164;5.400;2022-10-16T08:00:03;101255.38;;;13.93;100.00
47104;BME280;32853;52.164;5.400;2022-10-16T08:02:32;101164.84;;;13.44;100.00
47104;BME280;32853;52.164;5.400;2022-10-16T08:05:00;101175.69;;;13.55;100.00
47104;BME280;32853;52.164;5.400;2022-10-16T08:07:25;101255.09;;;13.99;100.00
47104;BME280;32853;52.164;5.400;2022-10-16T08:09:51;101236.91;;;13.94;100.00
47104;BME280;32853;52.164;5.400;2022-10-16T08:12:17;101184.63;;;13.70;100.00
47104;BME280;32853;52.164;5.400;2022-10-16T08:14:45;101270.78;;;14.19;100.00
47104;BME280;32853;52.164;5.400;2022-10-16T08:17:26;101245.69;;;14.12;100.00
47104;BME280;32853;52.164;5.400;2022-10-16T08:19:51;101230.44;;;14.02;100.00
47104;BME280;32853;52.164;5.400;2022-10-16T08:22:17;101276.16;;;14.35;100.00
47104;BME280;32853;52.164;5.400;2022-10-16T08:24:50;101281.69;;;14.48;100.00
47104;BME280;32853;52.164;5.400;2022-10-16T08:27:20;101281.00;;;14.62;100.00
47104;BME280;32853;52.164;5.400;2022-10-16T08:30:00;101252.84;;;14.46;100.00
47104;BME280;32853;52.164;5.400;2022-10-16T08:32:28;101242.44;;;14.43;100.00
47104;BME280;32853;52.164;5.400;2022-10-16T08:34:59;101291.25;;;14.68;100.00
47104;BME280;32853;52.164;5.400;2022-10-16T08:37:24;101291.50;;;14.80;100.00
47104;BME280;32853;52.164;5.400;2022-10-16T08:39:50;101288.25;;;14.75;100.00
47104;BME280;32853;52.164;5.400;2022-10-16T08:42:41;101288.84;;;14.80;100.00
47104;BME280;32853;52.164;5.400;2022-10-16T08:45:19;101296.50;;;14.85;100.00
47104;BME280;32853;52.164;5.400;2022-10-16T08:50:31;101307.53;;;15.10;100.00
47104;BME280;32853;52.164;5.400;2022-10-16T08:52:58;101285.44;;;14.96;100.00
47104;BME280;32853;52.164;5.400;2022-10-16T08:55:42;101315.94;;;15.17;100.00
47104;BME280;32853;52.164;5.400;2022-10-16T08:58:17;101336.34;;;15.31;100.00
47104;BME280;32853;52.164;5.400;2022-10-16T09:00:54;101337.78;;;15.36;100.00
47104;BME280;32853;52.164;5.400;2022-10-16T09:06:21;101332.66;;;15.51;100.00
47104;BME280;32853;52.164;5.400;2022-10-16T09:09:07;101331.41;;;15.58;100.00
47104;BME280;32853;52.164;5.400;2022-10-16T09:17:44;101259.56;;;15.21;100.00
47104;BME280;32853;52.164;5.400;2022-10-16T09:20:34;101294.66;;;15.55;100.00
47104;BME280;32853;52.164;5.400;2022-10-16T09:25:32;101368.81;;;16.15;100.00
47104;BME280;32853;52.164;5.400;2022-10-16T09:27:58;101348.06;;;16.09;100.00
47104;BME280;32853;52.164;5.400;2022-10-16T09:30:27;101342.81;;;16.07;100.00
47104;BME280;32853;52.164;5.400;2022-10-16T09:32:58;101317.16;;;16.11;100.00
47104;BME280;32853;52.164;5.400;2022-10-16T09:35:35;101367.56;;;16.53;100.00
47104;BME280;32853;52.164;5.400;2022-10-16T09:38:29;101371.03;;;16.54;100.00
47104;BME280;32853;52.164;5.400;2022-10-16T09:41:20;101381.44;;;16.73;100.00
47104;BME280;32853;52.164;5.400;2022-10-16T09:43:54;101380.22;;;16.63;100.00
47104;BME280;32853;52.164;5.400;2022-10-16T09:46:48;101382.47;;;16.54;100.00
47104;BME280;32853;52.164;5.400;2022-10-16T09:49:35;101380.22;;;16.47;100.00
47104;BME280;32853;52.164;5.400;2022-10-16T09:52:15;101333.38;;;16.03;100.00
47104;BME280;32853;52.164;5.400;2022-10-16T09:54:55;101364.41;;;16.31;100.00
47104;BME280;32853;52.164;5.400;2022-10-16T09:57:21;101392.84;;;16.58;100.00
47104;BME280;32853;52.164;5.400;2022-10-16T09:59:52;101318.16;;;16.24;100.00
47104;BME280;32853;52.164;5.400;2022-10-16T10:02:20;101366.94;;;16.64;100.00
47104;BME280;32853;52.164;5.400;2022-10-16T10:04:54;101369.25;;;16.70;100.00
47104;BME280;32853;52.164;5.400;2022-10-16T10:07:28;101338.59;;;16.68;100.00
47104;BME280;32853;52.164;5.400;2022-10-16T10:10:20;101411.72;;;17.13;100.00
47104;BME280;32853;52.164;5.400;2022-10-16T10:12:46;101333.53;;;16.79;100.00
47104;BME280;32853;52.164;5.400;2022-10-16T10:15:12;101295.31;;;16.54;100.00
47104;BME280;32853;52.164;5.400;2022-10-16T10:17:46;101389.31;;;17.04;100.00
47104;BME280;32853;52.164;5.400;2022-10-16T10:20:31;101365.13;;;16.96;100.00
47104;BME280;32853;52.164;5.400;2022-10-16T10:23:00;101405.78;;;17.54;100.00
47104;BME280;32853;52.164;5.400;2022-10-16T10:25:44;101357.94;;;17.28;100.00
47104;BME280;32853;52.164;5.400;2022-10-16T10:28:33;101411.91;;;17.54;100.00
47104;BME280;32853;52.164;5.400;2022-10-16T10:33:47;101411.09;;;17.68;100.00
47104;BME280;32853;52.164;5.400;2022-10-16T10:36:38;101429.09;;;17.61;100.00
47104;BME280;32853;52.164;5.400;2022-10-16T10:39:25;101303.88;;;16.90;100.00
47104;BME280;32853;52.164;5.400;2022-10-16T10:44:57;101263.88;;;16.50;100.00
47104;BME280;32853;52.164;5.400;2022-10-16T10:48:04;101436.28;;;17.75;100.00
47104;BME280;32853;52.164;5.400;2022-10-16T10:53:33;101306.13;;;16.96;100.00
47104;BME280;32853;52.164;5.400;2022-10-16T10:56:26;101437.13;;;17.76;100.00
47104;BME280;32853;52.164;5.400;2022-10-16T11:07:15;101460.34;;;17.70;100.00
47104;BME280;32853;52.164;5.400;2022-10-16T11:09:48;101337.69;;;16.83;100.00
47104;BME280;32853;52.164;5.400;2022-10-16T11:12:46;101343.72;;;17.01;100.00
47104;BME280;32853;52.164;5.400;2022-10-16T11:15:22;101426.09;;;17.53;100.00
47104;BME280;32853;52.164;5.400;2022-10-16T11:18:03;101431.84;;;17.60;100.00
47104;BME280;32853;52.164;5.400;2022-10-16T11:20:39;101428.63;;;17.55;100.00
47104;BME280;32853;52.164;5.400;2022-10-16T11:23:16;101467.53;;;17.83;100.00
47104;BME280;32853;52.164;5.400;2022-10-16T11:25:45;101483.81;;;17.91;100.00
47104;BME280;32853;52.164;5.400;2022-10-16T11:28:18;101402.53;;;17.34;100.00
47104;BME280;32853;52.164;5.400;2022-10-16T11:36:28;101303.88;;;17.04;100.00
47104;BME280;32853;52.164;5.400;2022-10-16T11:42:22;101477.28;;;18.39;100.00
47104;BME280;32853;52.164;5.400;2022-10-16T11:45:03;101450.53;;;18.15;100.00
47104;BME280;32853;52.164;5.400;2022-10-16T11:50:52;101462.66;;;18.19;100.00
47104;BME280;32853;52.164;5.400;2022-10-16T11:53:59;101372.09;;;17.71;100.00
47104;BME280;32853;52.164;5.400;2022-10-16T11:56:28;101460.09;;;18.18;100.00
47104;BME280;32853;52.164;5.400;2022-10-16T11:59:02;101485.53;;;18.35;100.00
47104;BME280;32853;52.164;5.400;2022-10-16T12:01:50;101488.06;;;18.50;100.00
47104;BME280;32853;52.164;5.400;2022-10-16T12:04:33;101486.38;;;18.49;100.00
47104;BME280;32853;52.164;5.400;2022-10-16T12:07:12;101491.66;;;18.49;100.00
47104;BME280;32853;52.164;5.400;2022-10-16T12:09:41;101379.38;;;17.96;100.00
47104;BME280;32853;52.164;5.400;2022-10-16T12:12:38;101474.16;;;18.61;99.83
47104;BME280;32853;52.164;5.400;2022-10-16T12:15:26;101500.69;;;18.75;100.00
47104;BME280;32853;52.164;5.400;2022-10-16T12:17:52;101461.94;;;18.73;100.00
47104;BME280;32853;52.164;5.400;2022-10-16T12:22:57;101430.25;;;18.85;100.00
47104;BME280;32853;52.164;5.400;2022-10-16T12:25:36;101420.47;;;18.86;96.63
47104;BME280;32853;52.164;5.400;2022-10-16T12:28:22;101502.53;;;19.29;100.00
47104;BME280;32853;52.164;5.400;2022-10-16T12:31:03;101509.34;;;19.45;100.00
47104;BME280;32853;52.164;5.400;2022-10-16T12:33:34;101510.03;;;19.62;99.41
47104;BME280;32853;52.164;5.400;2022-10-16T12:36:05;101446.03;;;19.27;92.46
47104;BME280;32853;52.164;5.400;2022-10-16T12:41:10;101517.47;;;19.57;89.80
47104;BME280;32853;52.164;5.400;2022-10-16T12:43:46;101521.75;;;19.45;93.40
47104;BME280;32853;52.164;5.400;2022-10-16T12:46:21;101517.16;;;19.34;87.96
47104;BME280;32853;52.164;5.400;2022-10-16T12:48:50;101511.97;;;19.33;92.73
47104;BME280;32853;52.164;5.400;2022-10-16T12:51:34;101530.19;;;19.52;92.24
47104;BME280;32853;52.164;5.400;2022-10-16T12:56:50;101506.59;;;19.74;92.15
47104;BME280;32853;52.164;5.400;2022-10-16T12:59:33;101514.03;;;19.94;87.87
47104;BME280;32853;52.164;5.400;2022-10-16T13:02:17;101442.19;;;19.45;89.91
47104;BME280;32853;52.164;5.400;2022-10-16T13:07:59;101489.88;;;19.59;84.54
47104;BME280;32853;52.164;5.400;2022-10-16T13:10:46;101522.50;;;19.74;86.61
47104;BME280;32853;52.164;5.400;2022-10-16T13:19:06;101379.22;;;19.22;77.41
47104;BME280;32853;52.164;5.400;2022-10-16T13:21:51;101523.59;;;20.10;77.94
47104;BME280;32853;52.164;5.400;2022-10-16T13:27:23;101534.63;;;19.78;74.90
47104;BME280;32853;52.164;5.400;2022-10-16T13:30:13;101532.78;;;19.66;79.64
47104;BME280;32853;52.164;5.400;2022-10-16T13:32:45;101554.44;;;19.72;79.52
47104;BME280;32853;52.164;5.400;2022-10-16T13:35:26;101550.66;;;19.89;84.11
47104;BME280;32853;52.164;5.400;2022-10-16T13:38:11;101543.34;;;19.93;78.87
47104;BME280;32853;52.164;5.400;2022-10-16T13:40:57;101493.44;;;19.45;82.09
47104;BME280;32853;52.164;5.400;2022-10-16T13:45:57;101550.31;;;19.68;85.53
47104;BME280;32853;52.164;5.400;2022-10-16T13:48:23;101452.03;;;19.03;85.07
47104;BME280;32853;52.164;5.400;2022-10-16T13:51:03;101546.25;;;19.63;87.79
47104;BME280;32853;52.164;5.400;2022-10-16T13:53:35;101539.28;;;19.75;88.71
47104;BME280;32853;52.164;5.400;2022-10-16T13:56:07;101393.97;;;18.86;87.45
47104;BME280;32853;52.164;5.400;2022-10-16T13:58:32;101493.19;;;19.36;87.51
47104;BME280;32853;52.164;5.400;2022-10-16T14:01:00;101504.56;;;19.51;86.59
47104;BME280;32853;52.164;5.400;2022-10-16T14:03:27;101548.53;;;19.55;87.51
47104;BME280;32853;52.164;5.400;2022-10-16T14:06:01;101571.66;;;19.53;87.27
47104;BME280;32853;52.164;5.400;2022-10-16T14:08:28;101474.34;;;18.86;88.18
47104;BME280;32853;52.164;5.400;2022-10-16T14:10:57;101560.44;;;19.35;93.56
47104;BME280;32853;52.164;5.400;2022-10-16T14:13:37;101567.91;;;19.42;92.45
47104;BME280;32853;52.164;5.400;2022-10-16T14:16:11;101562.78;;;19.39;90.22
47104;BME280;32853;52.164;5.400;2022-10-16T14:18:40;101572.38;;;19.42;90.84
47104;BME280;32853;52.164;5.400;2022-10-16T14:21:11;101543.44;;;19.25;91.40
47104;BME280;32853;52.164;5.400;2022-10-16T14:23:39;101573.97;;;19.44;90.78